Time;durP1;ratioP1;P1;durP2;ratioP2;P2;SDS_P1;SDS_P2;PMS_P1;PMS_P2;Temp;Humidity;BMP_temperature;BMP_pressure;BME280_temperature;BME280_humidity;BME280_pressure;Samples;Min_cycle;Max_cycle;Signal;HPM_P1;HPM_P2
2021/12/18 05:52:50;;;;;;;21.57;12.00;;;4.60;99.90;;;;;;5254433;23;20084;-76
2021/12/18 05:55:20;;;;;;;21.30;12.10;;;4.60;99.90;;;;;;4976251;28;20352;-76
2021/12/18 05:57:47;;;;;;;21.77;11.32;;;4.50;99.90;;;;;;4972910;28;20133;-77
2021/12/18 06:00:15;;;;;;;21.02;11.27;;;4.50;99.90;;;;;;4974252;28;20510;-76
2021/12/18 06:02:43;;;;;;;21.13;11.63;;;4.50;99.90;;;;;;4967469;28;20506;-76
2021/12/18 06:05:10;;;;;;;21.30;11.95;;;4.50;99.90;;;;;;4956424;29;20510;-79
2021/12/18 06:07:52;;;;;;;21.77;11.48;;;4.50;99.90;;;;;;4966887;28;20495;-78
2021/12/18 06:10:22;;;;;;;22.80;11.85;;;4.50;99.90;;;;;;4971827;28;20043;-76
2021/12/18 06:12:49;;;;;;;22.30;12.07;;;4.50;99.90;;;;;;4969275;28;20085;-74
2021/12/18 06:15:16;;;;;;;24.20;12.70;;;4.50;99.90;;;;;;4974682;28;20141;-74
2021/12/18 06:17:43;;;;;;;22.73;12.57;;;4.40;99.90;;;;;;4975056;28;20046;-75
2021/12/18 06:20:11;;;;;;;20.02;11.18;;;4.40;99.90;;;;;;4974850;28;20043;-74
2021/12/18 06:22:38;;;;;;;22.73;11.82;;;4.40;99.90;;;;;;4974952;28;20389;-74
2021/12/18 06:25:07;;;;;;;22.08;11.55;;;4.40;99.90;;;;;;4974903;28;20142;-73
2021/12/18 06:27:36;;;;;;;19.67;10.98;;;4.30;99.90;;;;;;4974277;28;20053;-74
2021/12/18 06:30:04;;;;;;;19.73;10.70;;;4.30;99.90;;;;;;4969797;28;20051;-75
2021/12/18 06:32:31;;;;;;;20.67;11.18;;;4.40;99.90;;;;;;4974973;28;20331;-76
2021/12/18 06:34:59;;;;;;;21.35;11.60;;;4.40;99.90;;;;;;4972387;28;20137;-75
2021/12/18 06:37:26;;;;;;;20.65;11.13;;;4.40;99.90;;;;;;4972286;28;20049;-75
2021/12/18 06:39:53;;;;;;;21.23;11.20;;;4.40;99.90;;;;;;4975162;28;20130;-74
2021/12/18 06:42:20;;;;;;;21.45;11.45;;;4.40;99.90;;;;;;4974847;28;20043;-75
2021/12/18 06:44:48;;;;;;;19.25;11.15;;;4.40;99.90;;;;;;4974098;28;20098;-75
2021/12/18 06:47:16;;;;;;;20.40;10.65;;;4.40;99.90;;;;;;4973995;28;20050;-75
2021/12/18 06:49:43;;;;;;;19.33;10.07;;;4.50;99.90;;;;;;4974381;28;20506;-74
2021/12/18 06:52:11;;;;;;;19.10;9.63;;;4.40;99.90;;;;;;4974108;28;20051;-76
2021/12/18 06:54:38;;;;;;;16.17;9.40;;;4.40;99.90;;;;;;4973626;28;20594;-76
2021/12/18 06:57:05;;;;;;;15.55;8.60;;;4.50;99.90;;;;;;4962862;28;20105;-75
2021/12/18 06:59:33;;;;;;;14.63;8.02;;;4.40;99.90;;;;;;4974552;28;20496;-75
2021/12/18 07:02:01;;;;;;;16.38;8.73;;;4.50;99.90;;;;;;4974268;28;20047;-75
2021/12/18 07:04:28;;;;;;;17.55;9.68;;;4.50;99.90;;;;;;4974128;28;20046;-75
2021/12/18 07:06:56;;;;;;;18.05;10.25;;;4.40;99.90;;;;;;4972892;28;20480;-75
2021/12/18 07:09:23;;;;;;;18.80;10.63;;;4.40;99.90;;;;;;4973522;28;20477;-76
2021/12/18 07:11:50;;;;;;;17.60;9.95;;;4.40;99.90;;;;;;4971783;28;20412;-79
2021/12/18 07:14:17;;;;;;;18.38;9.85;;;4.40;99.90;;;;;;4973806;28;20507;-76
2021/12/18 07:16:44;;;;;;;18.55;9.68;;;4.40;99.90;;;;;;4974159;28;20051;-76
2021/12/18 07:19:12;;;;;;;17.90;9.80;;;4.40;99.90;;;;;;4971399;28;20051;-79
2021/12/18 07:21:39;;;;;;;21.00;10.50;;;4.40;99.90;;;;;;4973967;28;20498;-74
2021/12/18 07:24:08;;;;;;;17.73;9.02;;;4.40;99.90;;;;;;4967878;28;20043;-75
2021/12/18 07:26:35;;;;;;;16.30;9.07;;;4.40;99.90;;;;;;4965160;28;20078;-75
2021/12/18 07:29:02;;;;;;;15.70;8.63;;;4.40;99.90;;;;;;4957384;28;20134;-75
2021/12/18 07:31:30;;;;;;;16.35;8.55;;;4.40;99.90;;;;;;4973592;28;20051;-74
2021/12/18 07:33:57;;;;;;;15.75;8.27;;;4.40;99.90;;;;;;4973806;28;20057;-74
2021/12/18 07:36:25;;;;;;;14.27;7.80;;;4.40;99.90;;;;;;4973837;28;20043;-77
2021/12/18 07:38:52;;;;;;;15.38;8.38;;;4.40;99.90;;;;;;4974266;28;20381;-75
2021/12/18 07:41:19;;;;;;;14.60;7.88;;;4.40;99.90;;;;;;4974126;28;20056;-77
2021/12/18 07:43:46;;;;;;;15.20;8.32;;;4.40;99.90;;;;;;4973378;28;20515;-75
2021/12/18 07:46:13;;;;;;;15.40;8.80;;;4.40;99.90;;;;;;4973874;28;20050;-76
2021/12/18 07:48:40;;;;;;;15.50;8.75;;;4.30;99.90;;;;;;4974011;28;20053;-77
2021/12/18 07:51:08;;;;;;;16.48;9.35;;;4.40;99.90;;;;;;4973570;28;20051;-76
2021/12/18 07:53:36;;;;;;;15.43;8.88;;;4.40;99.90;;;;;;4973538;28;20062;-77
2021/12/18 07:56:04;;;;;;;15.05;8.48;;;4.40;99.90;;;;;;4973701;28;20559;-78
2021/12/18 07:58:33;;;;;;;16.15;8.70;;;4.40;99.90;;;;;;4973389;28;20050;-79
2021/12/18 08:01:00;;;;;;;15.20;8.80;;;4.40;99.90;;;;;;4973491;28;20051;-78
2021/12/18 08:03:27;;;;;;;15.38;9.05;;;4.40;99.90;;;;;;4955211;28;20131;-76
2021/12/18 08:05:54;;;;;;;13.80;8.20;;;4.40;99.90;;;;;;4972139;28;20050;-75
2021/12/18 08:08:21;;;;;;;13.30;7.75;;;4.40;99.90;;;;;;4973429;28;20411;-79
2021/12/18 08:10:50;;;;;;;14.00;8.00;;;4.40;99.90;;;;;;4973681;28;20076;-78
2021/12/18 08:13:18;;;;;;;11.88;6.95;;;4.50;99.90;;;;;;4969303;28;20070;-79
2021/12/18 08:15:45;;;;;;;13.57;7.50;;;4.40;99.90;;;;;;4973820;28;20467;-78
2021/12/18 08:18:12;;;;;;;13.57;7.80;;;4.30;99.90;;;;;;4973398;28;20039;-78
2021/12/18 08:20:39;;;;;;;15.18;8.05;;;4.40;99.90;;;;;;4973635;28;20050;-79
2021/12/18 08:23:06;;;;;;;13.63;7.95;;;4.30;99.90;;;;;;4973596;28;20138;-78
2021/12/18 08:25:36;;;;;;;17.17;9.70;;;4.40;99.90;;;;;;4973703;28;20051;-78
2021/12/18 08:28:06;;;;;;;17.52;10.00;;;4.40;99.90;;;;;;4976978;28;20057;-79
2021/12/18 08:30:37;;;;;;;19.23;10.75;;;4.40;99.90;;;;;;4973242;28;20062;-78
2021/12/18 08:33:05;;;;;;;16.23;9.57;;;4.40;99.90;;;;;;4976938;28;20481;-78
2021/12/18 08:35:33;;;;;;;17.05;9.20;;;4.50;99.90;;;;;;4973642;28;20043;-79
2021/12/18 08:38:01;;;;;;;17.10;9.40;;;4.50;99.90;;;;;;4975759;28;20051;-77
2021/12/18 08:40:29;;;;;;;18.17;9.35;;;4.50;99.90;;;;;;4976455;28;20043;-78
2021/12/18 08:42:56;;;;;;;18.13;9.38;;;4.50;99.90;;;;;;4976148;28;20038;-78
2021/12/18 08:45:27;;;;;;;15.57;8.90;;;4.50;99.90;;;;;;4976095;28;20381;-76
2021/12/18 08:47:55;;;;;;;13.68;7.93;;;4.50;99.90;;;;;;4971464;28;20043;-77
2021/12/18 08:50:22;;;;;;;11.50;6.68;;;4.60;99.90;;;;;;4973368;28;20039;-76
2021/12/18 08:52:52;;;;;;;15.50;8.30;;;4.60;99.90;;;;;;4976482;28;20061;-77
2021/12/18 08:55:20;;;;;;;14.73;7.85;;;4.70;99.90;;;;;;4976526;28;20046;-78
2021/12/18 08:57:48;;;;;;;13.90;7.60;;;4.70;99.90;;;;;;4976843;28;20049;-78
2021/12/18 09:00:20;;;;;;;16.10;8.82;;;4.70;99.90;;;;;;4976583;28;20053;-77
2021/12/18 09:02:57;;;;;;;15.40;8.55;;;4.80;99.90;;;;;;4978519;28;20051;-77
2021/12/18 09:05:26;;;;;;;13.70;7.97;;;4.80;99.90;;;;;;4976707;28;20404;-78
2021/12/18 09:07:53;;;;;;;15.35;8.32;;;4.90;99.90;;;;;;4975758;28;20134;-77
2021/12/18 09:10:21;;;;;;;15.20;8.57;;;4.90;99.90;;;;;;4976884;28;20075;-75
2021/12/18 09:12:48;;;;;;;13.18;7.35;;;5.00;99.90;;;;;;4977478;28;20061;-78
2021/12/18 09:15:15;;;;;;;10.70;6.38;;;5.00;99.90;;;;;;4976851;28;20143;-78
2021/12/18 09:17:43;;;;;;;10.88;6.30;;;5.00;99.90;;;;;;4975283;28;20055;-77
2021/12/18 09:20:13;;;;;;;10.85;5.68;;;5.00;99.30;;;;;;4976861;28;20076;-77
2021/12/18 09:22:41;;;;;;;9.30;5.32;;;5.00;98.90;;;;;;4973514;28;20050;-75
2021/12/18 09:25:10;;;;;;;12.13;6.30;;;5.00;99.00;;;;;;4973512;28;20053;-77
2021/12/18 09:27:38;;;;;;;11.68;6.70;;;4.90;98.80;;;;;;4975954;28;20134;-77
2021/12/18 09:30:09;;;;;;;10.65;6.13;;;4.90;98.90;;;;;;4975533;28;20061;-76
2021/12/18 09:32:36;;;;;;;10.25;5.78;;;4.90;99.00;;;;;;4976245;28;20165;-77
2021/12/18 09:35:05;;;;;;;10.30;5.82;;;4.80;98.90;;;;;;4976215;28;20057;-74
2021/12/18 09:37:34;;;;;;;10.70;5.93;;;4.80;98.90;;;;;;4976022;28;20057;-78
2021/12/18 09:40:01;;;;;;;10.57;5.88;;;4.80;99.00;;;;;;4975966;28;20506;-78
2021/12/18 09:42:28;;;;;;;10.68;6.10;;;4.90;98.90;;;;;;4975575;28;20146;-77
2021/12/18 09:44:55;;;;;;;11.70;6.88;;;4.90;98.90;;;;;;4973644;28;20395;-79
2021/12/18 09:47:22;;;;;;;11.00;6.13;;;4.90;98.80;;;;;;4972975;28;20077;-77
2021/12/18 09:49:50;;;;;;;12.43;6.90;;;4.90;98.90;;;;;;4965764;28;20138;-77
2021/12/18 09:52:17;;;;;;;11.13;6.10;;;5.00;98.80;;;;;;4967972;28;20072;-78
2021/12/18 09:54:45;;;;;;;11.77;6.65;;;5.00;98.80;;;;;;4968363;28;20047;-77
2021/12/18 09:57:13;;;;;;;11.05;6.20;;;5.00;98.80;;;;;;4970662;28;20070;-77
2021/12/18 09:59:40;;;;;;;11.95;6.47;;;5.10;98.90;;;;;;4966564;28;20086;-78
2021/12/18 10:02:08;;;;;;;12.13;6.63;;;5.10;99.10;;;;;;4975619;28;20046;-81
2021/12/18 10:04:38;;;;;;;10.07;5.95;;;5.10;98.80;;;;;;4975552;28;20047;-77
2021/12/18 10:07:20;;;;;;;12.07;6.63;;;5.20;98.70;;;;;;4972653;28;20499;-76
2021/12/18 10:09:51;;;;;;;11.88;6.57;;;5.20;98.70;;;;;;4965827;28;20058;-77
2021/12/18 10:12:20;;;;;;;11.35;6.38;;;5.20;98.60;;;;;;4972044;28;20081;-77
2021/12/18 10:14:51;;;;;;;13.38;6.78;;;5.20;98.60;;;;;;4973080;28;20057;-78
2021/12/18 10:17:28;;;;;;;11.48;6.35;;;5.20;98.60;;;;;;4973496;28;20057;-76
2021/12/18 10:20:16;;;;;;;12.82;6.90;;;5.20;98.40;;;;;;4974894;28;20046;-76
2021/12/18 10:22:48;;;;;;;12.15;6.88;;;5.20;98.20;;;;;;4974292;28;20047;-77
2021/12/18 10:25:19;;;;;;;11.85;6.65;;;5.20;98.20;;;;;;4972275;28;20042;-79
2021/12/18 10:27:58;;;;;;;12.10;6.65;;;5.20;98.10;;;;;;4974836;28;20068;-75
2021/12/18 10:30:26;;;;;;;12.02;6.43;;;5.30;98.10;;;;;;4969086;28;20046;-76
2021/12/18 10:33:05;;;;;;;13.50;7.50;;;5.20;98.10;;;;;;4975260;28;20051;-77
2021/12/18 10:35:43;;;;;;;11.68;6.65;;;5.20;98.10;;;;;;4967704;28;20130;-76
2021/12/18 10:38:31;;;;;;;11.38;6.20;;;5.20;98.20;;;;;;4973350;28;20046;-77
2021/12/18 10:40:59;;;;;;;10.98;6.40;;;5.20;98.30;;;;;;4966475;28;20050;-75
2021/12/18 10:43:26;;;;;;;10.93;6.20;;;5.30;98.20;;;;;;4970438;28;20039;-73
2021/12/18 10:45:53;;;;;;;11.20;6.47;;;5.30;98.00;;;;;;4973855;28;20053;-75
2021/12/18 10:48:21;;;;;;;10.93;6.20;;;5.40;97.90;;;;;;4974095;28;20126;-79
2021/12/18 10:50:50;;;;;;;10.13;6.00;;;5.50;97.80;;;;;;4966340;28;20130;-79
2021/12/18 10:53:21;;;;;;;11.38;6.80;;;5.50;97.60;;;;;;4969248;28;20058;-78
2021/12/18 10:55:51;;;;;;;11.85;6.63;;;5.50;97.20;;;;;;4973449;28;20137;-78
2021/12/18 10:58:26;;;;;;;11.27;6.55;;;5.50;97.20;;;;;;4974720;28;20050;-77
2021/12/18 11:00:58;;;;;;;11.98;6.72;;;5.50;97.30;;;;;;4969245;28;20051;-78
2021/12/18 11:03:30;;;;;;;12.75;7.72;;;5.60;97.20;;;;;;4968708;28;20044;-78
2021/12/18 11:06:16;;;;;;;13.43;7.40;;;5.60;96.90;;;;;;4972769;28;20126;-77
2021/12/18 11:09:06;;;;;;;14.88;7.90;;;5.60;97.10;;;;;;4974664;28;20106;-75
2021/12/18 11:14:39;;;;;;;11.25;6.45;;;5.60;96.90;;;;;;4969143;28;20181;-77
2021/12/18 11:17:10;;;;;;;11.02;6.80;;;5.60;97.20;;;;;;4973252;28;20063;-74
2021/12/18 11:19:39;;;;;;;11.40;6.60;;;5.70;97.10;;;;;;4975616;28;20043;-75
2021/12/18 11:22:08;;;;;;;11.27;6.70;;;5.70;96.80;;;;;;4974445;28;20046;-74
2021/12/18 11:24:41;;;;;;;11.27;6.88;;;5.80;96.80;;;;;;4974381;28;20057;-76
2021/12/18 11:27:10;;;;;;;13.90;7.25;;;5.80;96.40;;;;;;4970610;28;20047;-75
2021/12/18 11:29:44;;;;;;;11.50;6.78;;;5.90;96.30;;;;;;4974477;28;20385;-79
2021/12/18 11:32:16;;;;;;;11.25;6.30;;;5.90;96.10;;;;;;4973112;28;20050;-77
2021/12/18 11:34:44;;;;;;;11.13;6.85;;;6.00;96.70;;;;;;4970709;28;20051;-75
2021/12/18 11:37:15;;;;;;;12.23;7.32;;;6.10;96.00;;;;;;4962934;28;20042;-79
2021/12/18 11:39:43;;;;;;;12.45;6.80;;;6.10;95.90;;;;;;4972504;28;20085;-75
2021/12/18 11:42:12;;;;;;;12.45;7.15;;;6.10;96.10;;;;;;4968639;28;20085;-75
2021/12/18 11:44:43;;;;;;;12.15;6.38;;;6.10;95.80;;;;;;4966153;28;20134;-75
2021/12/18 11:47:32;;;;;;;13.48;7.13;;;6.20;96.20;;;;;;4973232;28;20134;-75
2021/12/18 11:50:04;;;;;;;11.43;6.88;;;6.30;96.30;;;;;;4965230;28;20042;-76
2021/12/18 11:53:00;;;;;;;12.10;6.70;;;6.40;96.30;;;;;;4971754;28;20046;-77
2021/12/18 11:55:31;;;;;;;11.43;6.80;;;6.60;96.20;;;;;;4969069;28;20137;-78
2021/12/18 11:58:00;;;;;;;10.95;6.10;;;6.70;95.80;;;;;;4973099;28;20134;-79
2021/12/18 12:00:56;;;;;;;11.73;6.50;;;6.90;95.60;;;;;;4976006;28;20101;-79
2021/12/18 12:03:35;;;;;;;10.88;6.38;;;7.10;95.00;;;;;;4977450;28;20043;-80
2021/12/18 12:06:06;;;;;;;10.10;6.00;;;7.10;94.80;;;;;;4967911;28;20047;-78
2021/12/18 12:08:39;;;;;;;11.50;6.47;;;7.20;94.20;;;;;;4976794;28;20046;-78
2021/12/18 12:11:17;;;;;;;11.93;6.13;;;7.20;94.40;;;;;;4978317;28;20161;-78
2021/12/18 12:14:13;;;;;;;11.10;6.55;;;7.40;94.60;;;;;;4974697;28;20126;-79
2021/12/18 12:17:25;;;;;;;10.73;6.22;;;7.40;94.00;;;;;;4965784;28;20047;-79
2021/12/18 12:20:02;;;;;;;12.03;6.63;;;7.50;93.60;;;;;;4975836;28;20049;-80
2021/12/18 12:22:53;;;;;;;11.73;6.78;;;7.70;93.10;;;;;;4978279;28;20055;-76
2021/12/18 12:25:37;;;;;;;11.70;6.65;;;7.80;93.20;;;;;;4976790;28;20091;-75
2021/12/18 12:28:07;;;;;;;10.90;6.55;;;7.90;92.80;;;;;;4976680;28;20370;-74
2021/12/18 12:30:43;;;;;;;12.40;6.78;;;8.00;92.60;;;;;;4976764;28;20046;-74
2021/12/18 12:33:26;;;;;;;12.60;6.78;;;8.00;92.60;;;;;;4976964;28;20075;-74
2021/12/18 12:36:13;;;;;;;12.77;6.90;;;8.20;92.10;;;;;;4967642;28;20057;-76
2021/12/18 12:38:55;;;;;;;14.10;7.18;;;8.40;91.90;;;;;;4977130;28;20077;-75
2021/12/18 12:41:35;;;;;;;12.90;7.90;;;8.60;91.40;;;;;;4958965;28;20058;-76
2021/12/18 12:44:14;;;;;;;12.27;7.03;;;8.70;91.00;;;;;;4966806;28;20121;-75
2021/12/18 12:46:42;;;;;;;14.93;8.00;;;8.80;91.00;;;;;;4977018;28;20057;-77
2021/12/18 12:49:12;;;;;;;14.20;8.25;;;9.10;91.10;;;;;;4978742;28;20137;-76
2021/12/18 12:52:10;;;;;;;12.85;8.00;;;9.30;90.90;;;;;;4975621;28;20139;-76
2021/12/18 12:54:58;;;;;;;12.25;7.57;;;9.70;89.70;;;;;;4975793;28;20077;-77
2021/12/18 12:57:56;;;;;;;12.15;7.45;;;10.30;88.30;;;;;;4971571;28;20047;-76
2021/12/18 13:00:58;;;;;;;11.93;6.95;;;11.50;85.20;;;;;;4963014;28;20047;-78
2021/12/18 13:03:30;;;;;;;12.25;7.72;;;12.90;78.80;;;;;;4960928;28;20047;-78
2021/12/18 13:06:09;;;;;;;14.95;8.43;;;14.80;70.00;;;;;;4976596;28;20571;-79
2021/12/18 13:08:40;;;;;;;12.52;7.75;;;16.60;62.60;;;;;;4963493;28;20054;-76
2021/12/18 13:11:10;;;;;;;11.73;7.13;;;18.80;60.10;;;;;;4975786;28;20065;-79
2021/12/18 13:13:37;;;;;;;10.38;6.65;;;20.10;50.40;;;;;;4976589;28;20058;-78
2021/12/18 13:16:10;;;;;;;9.75;6.07;;;21.50;46.70;;;;;;4976414;28;20094;-77
2021/12/18 13:18:42;;;;;;;10.15;6.60;;;22.50;45.20;;;;;;4976350;28;20054;-79
2021/12/18 13:21:14;;;;;;;9.40;6.72;;;23.30;62.80;;;;;;4972082;28;20045;-78
2021/12/18 13:23:57;;;;;;;9.85;7.25;;;23.70;63.00;;;;;;4976708;28;20102;-78
2021/12/18 13:26:30;;;;;;;9.77;6.80;;;23.90;62.20;;;;;;4976100;28;20503;-80
2021/12/18 13:29:07;;;;;;;9.77;7.15;;;24.00;61.50;;;;;;4976234;28;20046;-79
2021/12/18 13:31:39;;;;;;;10.32;7.40;;;24.20;51.90;;;;;;4966395;28;20102;-77
2021/12/18 13:34:10;;;;;;;10.23;7.47;;;24.30;50.80;;;;;;4976109;28;20361;-78
2021/12/18 13:36:50;;;;;;;9.15;7.00;;;24.60;46.40;;;;;;4976094;28;20141;-78
2021/12/18 13:39:19;;;;;;;9.13;6.45;;;25.00;44.90;;;;;;4961711;28;20126;-78
2021/12/18 13:42:03;;;;;;;9.50;7.32;;;25.40;44.50;;;;;;4975977;28;20263;-77
2021/12/18 13:44:45;;;;;;;10.50;6.87;;;;;;;;;;4963040;28;20129;-79
2021/12/18 13:47:23;;;;;;;9.40;6.78;;;27.70;51.90;;;;;;4974894;28;20043;-77
2021/12/18 13:49:52;;;;;;;9.63;7.35;;;27.50;49.90;;;;;;4976214;28;20054;-79
2021/12/18 13:52:39;;;;;;;9.77;7.10;;;28.30;46.20;;;;;;4975287;28;20055;-78
2021/12/18 13:55:42;;;;;;;10.85;7.90;;;29.00;46.90;;;;;;4975960;28;20043;-76
2021/12/18 13:58:13;;;;;;;10.88;8.30;;;29.30;45.10;;;;;;4925651;29;20138;-79
2021/12/18 14:01:01;;;;;;;11.85;8.27;;;29.60;55.90;;;;;;4969380;28;20050;-74
2021/12/18 14:03:35;;;;;;;10.98;7.97;;;;;;;;;;4981321;28;20105;-78
2021/12/18 14:06:06;;;;;;;11.35;8.60;;;29.20;31.50;;;;;;4980836;28;20054;-79
2021/12/18 14:08:38;;;;;;;11.50;8.20;;;29.00;31.90;;;;;;4979796;28;20053;-79
2021/12/18 14:11:09;;;;;;;12.32;9.02;;;28.80;32.10;;;;;;4979623;28;20197;-79
2021/12/18 14:13:45;;;;;;;12.00;8.90;;;28.30;32.30;;;;;;4980480;28;20070;-79
2021/12/18 14:16:13;;;;;;;11.00;8.13;;;27.90;32.60;;;;;;4973006;28;20054;-79
2021/12/18 14:18:49;;;;;;;11.15;8.35;;;27.60;32.60;;;;;;4978806;28;20050;-78
2021/12/18 14:21:17;;;;;;;12.18;9.02;;;26.60;33.00;;;;;;4974631;28;20130;-81
2021/12/18 14:23:46;;;;;;;12.23;8.50;;;;;;;;;;4968037;28;20049;-78
2021/12/18 14:26:22;;;;;;;11.65;8.45;;;;;;;;;;4966212;28;20137;-78
2021/12/18 14:28:55;;;;;;;13.25;9.70;;;;;;;;;;4972259;28;20489;-79
2021/12/18 14:31:35;;;;;;;14.40;9.70;;;19.50;40.00;;;;;;4967961;28;20475;-78
2021/12/18 14:34:07;;;;;;;15.75;10.35;;;18.50;41.60;;;;;;4972467;28;20110;-80
2021/12/18 14:37:05;;;;;;;16.05;10.70;;;17.10;44.80;;;;;;4970953;28;20291;-78
2021/12/18 14:39:49;;;;;;;16.65;11.18;;;15.90;46.50;;;;;;4968052;28;20039;-77
2021/12/18 14:42:31;;;;;;;20.30;13.38;;;14.80;48.50;;;;;;4971732;28;20047;-78
2021/12/18 14:45:00;;;;;;;19.35;12.10;;;14.00;50.70;;;;;;4964918;28;20146;-78
2021/12/18 14:47:32;;;;;;;21.88;12.73;;;13.30;52.30;;;;;;4974153;28;20141;-79
2021/12/18 14:50:14;;;;;;;17.83;11.38;;;12.70;53.70;;;;;;4972865;28;20350;-79
2021/12/18 14:53:10;;;;;;;19.70;10.70;;;12.10;55.00;;;;;;4969858;28;20050;-77
2021/12/18 14:55:47;;;;;;;18.35;11.05;;;11.60;56.60;;;;;;4970736;28;20054;-77
2021/12/18 14:58:18;;;;;;;20.60;11.65;;;11.30;58.00;;;;;;4962226;28;20120;-78
2021/12/18 15:00:51;;;;;;;23.02;12.45;;;11.00;59.00;;;;;;4955386;29;20051;-75
2021/12/18 15:03:23;;;;;;;20.33;12.07;;;10.60;59.80;;;;;;4976689;28;20093;-77
2021/12/18 15:05:55;;;;;;;19.02;11.55;;;10.20;61.00;;;;;;4973066;28;20047;-79
2021/12/18 15:08:37;;;;;;;20.00;11.93;;;9.80;62.10;;;;;;4967053;28;20050;-78
2021/12/18 15:11:20;;;;;;;20.80;12.30;;;9.50;63.40;;;;;;4973912;28;20404;-78
2021/12/18 15:13:51;;;;;;;19.52;11.52;;;9.10;65.00;;;;;;4974370;28;20053;-79
2021/12/18 15:16:28;;;;;;;21.13;11.95;;;8.80;66.00;;;;;;4972653;28;20126;-76
2021/12/18 15:18:59;;;;;;;20.70;12.30;;;;;;;;;;4961147;28;20059;-78
2021/12/18 15:21:27;;;;;;;20.58;12.38;;;;;;;;;;4972181;28;20039;-78
2021/12/18 15:23:54;;;;;;;22.50;12.80;;;;;;;;;;4971084;28;20054;-78
2021/12/18 15:26:24;;;;;;;24.27;13.23;;;;;;;;;;4974027;28;20133;-79
2021/12/18 15:28:51;;;;;;;20.60;11.95;;;;;;;;;;4973289;28;20050;-76
2021/12/18 15:31:19;;;;;;;20.27;11.80;;;;;;;;;;4968085;28;20046;-76
2021/12/18 15:33:47;;;;;;;23.80;13.10;;;;;;;;;;4971488;28;20053;-77
2021/12/18 15:36:14;;;;;;;21.48;11.98;;;;;;;;;;4965958;28;20043;-74
2021/12/18 15:38:42;;;;;;;22.27;12.23;;;;;;;;;;4970114;28;20050;-75
2021/12/18 15:41:10;;;;;;;22.88;12.13;;;;;;;;;;4966721;28;20039;-74
2021/12/18 15:43:40;;;;;;;22.25;12.15;;;;;;;;;;4969983;28;20046;-74
2021/12/18 15:46:08;;;;;;;21.80;12.10;;;;;;;;;;4970063;28;20039;-75
2021/12/18 15:48:36;;;;;;;22.10;12.45;;;;;;;;;;4970300;28;20476;-74
2021/12/18 15:51:05;;;;;;;22.20;12.32;;;;;;;;;;4964588;28;20133;-75
2021/12/18 15:53:32;;;;;;;23.15;12.45;;;;;;;;;;4969211;28;20065;-77
2021/12/18 15:56:00;;;;;;;23.20;12.52;;;;;;;;;;4969788;28;20043;-77
2021/12/18 15:58:27;;;;;;;22.02;12.32;;;;;;;;;;4970792;28;20215;-76
2021/12/18 16:00:56;;;;;;;21.30;11.82;;;;;;;;;;4969955;28;20500;-78
2021/12/18 16:03:23;;;;;;;24.40;12.98;;;;;;;;;;4970767;28;20042;-76
2021/12/18 16:05:51;;;;;;;24.08;12.68;;;;;;;;;;4969652;28;20061;-76
2021/12/18 16:08:18;;;;;;;25.27;13.05;;;;;;;;;;4969434;28;20133;-76
2021/12/18 16:10:46;;;;;;;22.77;12.52;;;;;;;;;;4971883;28;20047;-77
2021/12/18 16:13:18;;;;;;;24.55;12.98;;;;;;;;;;4972442;28;20053;-77
2021/12/18 16:15:47;;;;;;;23.60;12.65;;;;;;;;;;4969583;28;20408;-74
2021/12/18 16:18:17;;;;;;;24.55;13.50;;;;;;;;;;4955321;28;20582;-75
2021/12/18 16:20:45;;;;;;;24.00;12.65;;;;;;;;;;4969878;28;20102;-77
2021/12/18 16:23:13;;;;;;;23.00;12.60;;;;;;;;;;4969434;28;20416;-77
2021/12/18 16:25:41;;;;;;;21.83;12.25;;;;;;;;;;4965743;28;20047;-77
2021/12/18 16:28:08;;;;;;;22.60;12.38;;;;;;;;;;4970398;28;20465;-75
2021/12/18 16:30:36;;;;;;;25.90;13.02;;;;;;;;;;4969286;28;20051;-76
2021/12/18 16:33:03;;;;;;;22.42;12.63;;;;;;;;;;4965821;28;20130;-78
2021/12/18 16:35:33;;;;;;;23.08;12.60;;;;;;;;;;4970180;28;20051;-77
2021/12/18 16:38:25;;;;;;;22.00;12.60;;;;;;;;;;4970126;28;20071;-75
2021/12/18 16:40:52;;;;;;;22.92;11.75;;;;;;;;;;4970130;28;20062;-77
2021/12/18 16:43:20;;;;;;;23.50;12.45;;;;;;;;;;4965044;28;20043;-77
2021/12/18 16:45:47;;;;;;;23.13;12.32;;;5.90;99.90;;;;;;4969812;28;20071;-77
2021/12/18 16:48:17;;;;;;;22.58;12.20;;;5.90;99.90;;;;;;4972403;28;20419;-77
2021/12/18 16:50:48;;;;;;;23.70;13.27;;;5.90;99.90;;;;;;4972030;28;20097;-77
2021/12/18 16:53:17;;;;;;;23.95;12.73;;;5.70;99.90;;;;;;4973433;28;20057;-79
2021/12/18 16:55:44;;;;;;;23.73;12.20;;;5.50;96.90;;;;;;4972936;28;20047;-76
2021/12/18 16:58:11;;;;;;;23.48;12.50;;;5.60;97.10;;;;;;4972637;28;20046;-77
2021/12/18 17:00:38;;;;;;;25.52;13.52;;;5.50;97.20;;;;;;4972502;28;20074;-77
2021/12/18 17:03:06;;;;;;;23.83;12.90;;;5.50;97.20;;;;;;4973254;28;20046;-75
2021/12/18 17:05:39;;;;;;;23.80;12.73;;;5.40;97.20;;;;;;4972137;28;20129;-77
2021/12/18 17:08:09;;;;;;;25.75;13.82;;;5.40;97.50;;;;;;4967207;28;20404;-77
2021/12/18 17:10:38;;;;;;;23.30;13.07;;;5.30;97.50;;;;;;4970128;28;20051;-75
2021/12/18 17:13:05;;;;;;;25.23;13.40;;;5.30;97.70;;;;;;4972641;28;20412;-75
2021/12/18 17:15:32;;;;;;;24.95;13.73;;;5.30;97.80;;;;;;4971139;28;20042;-76
2021/12/18 17:17:59;;;;;;;24.75;12.98;;;5.30;97.80;;;;;;4972922;28;20051;-78
2021/12/18 17:20:26;;;;;;;23.15;12.50;;;5.20;97.90;;;;;;4972220;28;20663;-75
2021/12/18 17:22:54;;;;;;;24.88;13.75;;;5.20;98.10;;;;;;4973618;28;20050;-75
2021/12/18 17:25:23;;;;;;;24.40;13.05;;;5.20;98.20;;;;;;4973418;28;20047;-75
2021/12/18 17:27:51;;;;;;;25.05;13.38;;;5.20;98.20;;;;;;4971307;28;20141;-75
2021/12/18 17:30:23;;;;;;;25.85;13.07;;;5.20;98.30;;;;;;4964857;28;20039;-77
2021/12/18 17:32:51;;;;;;;25.80;13.05;;;5.20;98.40;;;;;;4969503;28;20117;-77
2021/12/18 17:35:18;;;;;;;23.52;12.55;;;5.20;98.40;;;;;;4971937;28;20097;-76
2021/12/18 17:37:45;;;;;;;22.95;13.00;;;5.20;98.40;;;;;;4960448;28;20055;-75
2021/12/18 17:40:20;;;;;;;24.92;13.20;;;5.20;98.50;;;;;;4956643;28;20064;-79
2021/12/18 17:42:50;;;;;;;26.30;14.48;;;5.20;98.50;;;;;;4969437;28;20054;-75
2021/12/18 17:45:18;;;;;;;26.10;13.35;;;5.20;98.40;;;;;;4969981;28;20055;-76
2021/12/18 17:47:47;;;;;;;24.45;13.25;;;5.20;98.40;;;;;;4969949;28;20058;-77
2021/12/18 17:50:14;;;;;;;24.98;13.88;;;5.10;98.40;;;;;;4970945;28;20058;-77
2021/12/18 17:52:42;;;;;;;26.40;13.90;;;5.10;98.60;;;;;;4968298;28;20062;-76
2021/12/18 17:55:10;;;;;;;24.55;13.48;;;5.10;98.70;;;;;;4971107;28;20051;-75
2021/12/18 17:57:37;;;;;;;25.92;13.10;;;5.10;98.70;;;;;;4970132;28;20073;-74
2021/12/18 18:00:16;;;;;;;25.67;13.32;;;5.10;99.00;;;;;;4968820;28;20069;-78
2021/12/18 18:02:44;;;;;;;27.00;14.20;;;5.10;98.80;;;;;;4971567;28;20050;-78
2021/12/18 18:05:11;;;;;;;25.80;13.80;;;5.10;98.80;;;;;;4968069;28;20065;-80
2021/12/18 18:07:40;;;;;;;27.48;14.43;;;5.20;98.70;;;;;;4971519;28;20430;-76
2021/12/18 18:10:09;;;;;;;25.50;13.95;;;5.10;98.60;;;;;;4970883;28;20138;-77
2021/12/18 18:12:36;;;;;;;26.30;13.75;;;5.10;98.70;;;;;;4971756;28;20051;-74
2021/12/18 18:15:06;;;;;;;26.30;13.63;;;5.10;98.80;;;;;;4963017;28;20051;-74
2021/12/18 18:17:34;;;;;;;23.70;12.85;;;5.00;98.80;;;;;;4971164;28;20053;-76
2021/12/18 18:20:01;;;;;;;27.92;14.65;;;5.00;98.90;;;;;;4970751;28;20137;-77
2021/12/18 18:22:29;;;;;;;25.52;13.90;;;4.90;99.00;;;;;;4971618;28;20050;-75
2021/12/18 18:24:56;;;;;;;26.85;14.23;;;5.00;98.90;;;;;;4971565;28;20046;-74
2021/12/18 18:27:23;;;;;;;28.75;13.85;;;4.90;99.00;;;;;;4971218;28;20129;-75
2021/12/18 18:29:51;;;;;;;25.88;14.43;;;4.90;99.10;;;;;;4971390;28;20046;-75
2021/12/18 18:32:20;;;;;;;28.98;14.90;;;;;;;;;;4971232;28;20047;-75
2021/12/18 18:34:48;;;;;;;28.95;15.15;;;;;;;;;;4971152;28;20093;-75
2021/12/18 18:37:16;;;;;;;28.83;14.88;;;;;;;;;;4965140;28;20074;-79
2021/12/18 18:39:43;;;;;;;27.48;14.45;;;;;;;;;;4970475;28;20046;-79
2021/12/18 18:42:13;;;;;;;28.45;14.80;;;;;;;;;;4949873;28;20589;-79
2021/12/18 18:44:44;;;;;;;28.63;14.05;;;;;;;;;;4968792;28;20042;-75
2021/12/18 18:47:18;;;;;;;27.48;13.88;;;;;;;;;;4964050;28;20098;-79
2021/12/18 18:49:47;;;;;;;30.02;15.35;;;;;;;;;;4971062;28;20046;-78
2021/12/18 18:52:15;;;;;;;26.92;14.02;;;;;;;;;;4971097;28;20407;-76
2021/12/18 18:54:44;;;;;;;27.30;14.57;;;;;;;;;;4971370;28;20053;-79
2021/12/18 18:57:11;;;;;;;28.33;14.15;;;5.10;98.50;;;;;;4972351;28;20423;-75
2021/12/18 18:59:43;;;;;;;26.50;13.57;;;5.00;99.00;;;;;;4971502;28;20129;-76
2021/12/18 19:02:12;;;;;;;27.50;13.82;;;4.90;99.20;;;;;;4970911;28;20043;-77
2021/12/18 19:04:40;;;;;;;28.48;14.40;;;4.90;99.30;;;;;;4970725;28;20050;-76
2021/12/18 19:07:09;;;;;;;26.40;14.73;;;4.90;99.20;;;;;;4970198;28;20837;-77
2021/12/18 19:09:38;;;;;;;28.08;14.20;;;4.90;99.30;;;;;;4970592;28;20046;-77
2021/12/18 19:12:07;;;;;;;30.38;15.32;;;4.90;99.40;;;;;;4970745;28;20130;-75